EREK1: Neosho River near Erie

                                SHEF ID:       EREK1     NEOSHO R NR ERIE, KS
STATION TYPE:

PRECIP STAGE RIV-FLOW BAT-LOAD
in ft cfs volt
Ccp-Rev Ccp-Rev Ccp-Rev Ccp-Rev
(America/Chicago)
02/15 00:00 ---- 13.35 2140 12.31
02/15 01:00 ---- 13.33 2120 12.30
02/15 02:00 ---- 13.35 2140 12.30
02/15 03:00 ---- 13.34 2130 12.30
02/15 04:00 ---- 13.33 2120 12.30
02/15 05:00 ---- 13.34 2130 12.30
02/15 06:00 ---- 13.38 2170 12.29
02/15 07:00 ---- 13.44 2240 12.29
02/15 08:00 ---- 13.55 2410 12.29
02/15 09:00 ---- 13.81 2790 12.42
02/15 10:00 ---- 14.16 3290 13.14
02/15 11:00 ---- 14.59 3910 13.35
02/15 12:00 ---- 15.03 4530 13.32
02/15 13:00 ---- 15.42 5080 13.28
02/15 14:00 ---- 15.79 5600 13.26
02/15 15:00 ---- 16.12 6060 13.26
02/15 16:00 ---- 16.42 6480 13.26
02/15 17:00 ---- 16.67 6820 13.26
02/15 18:00 ---- 16.87 7100 13.31
02/15 19:00 ---- 17.02 7310 12.76
02/15 20:00 ---- 17.13 7460 12.57
02/15 21:00 ---- 17.18 7530 12.50
02/15 22:00 ---- 17.21 7570 12.47
02/15 23:00 ---- 17.19 7540 12.44
Data processed at Mon 16Feb2026 05:23 GMT

NOTICE: If you are parsing this page

Please convert to using our Data API. Starting early 2026 we will be migrating to: https://water.usace.army.mil with modern pages rendered in JavaScript. When this migration completes you will no longer be able to scrape this page! CWMSDataAPI (CDA)

Timeseries IDs (TSIDs)

TSIDs used from left to right in the data table
ERIE.Precip-Inc.Total.1Hour.1Hour.Ccp-Rev
ERIE.Stage.Inst.1Hour.0.Ccp-Rev
ERIE.Flow.Inst.1Hour.0.Ccp-Rev
ERIE.Volt-Battery Load.Inst.1Hour.0.Ccp-Rev

                            

All information presented herein is the property of the government of the United States of America and may be revised or deleted at any time without prior notice. Dissemination of this information without the expressed written consent of the Public Affairs Office, Tulsa District U.S. Army Corps of Engineers is strictly prohibited. These data are gathered electronically and, as presented, have NOT undergone any form of quality control. These data are NOT guaranteed to be valid or correct.